sensor_id;sensor_type;location;lat;lon;timestamp;temperature;humidity
46562;DHT22;32289;42.688;23.330;2023-09-19T00:03:09;15.90;99.90
46562;DHT22;32289;42.688;23.330;2023-09-19T00:06:50;15.80;99.90
46562;DHT22;32289;42.688;23.330;2023-09-19T00:10:32;15.70;99.90
46562;DHT22;32289;42.688;23.330;2023-09-19T00:14:15;15.70;99.90
46562;DHT22;32289;42.688;23.330;2023-09-19T00:17:56;15.70;99.90
46562;DHT22;32289;42.688;23.330;2023-09-19T00:21:37;15.70;99.90
46562;DHT22;32289;42.688;23.330;2023-09-19T00:25:18;15.70;99.90
46562;DHT22;32289;42.688;23.330;2023-09-19T00:28:59;15.60;99.90
46562;DHT22;32289;42.688;23.330;2023-09-19T00:32:50;15.70;99.90
46562;DHT22;32289;42.688;23.330;2023-09-19T00:36:32;15.60;99.90
46562;DHT22;32289;42.688;23.330;2023-09-19T00:40:14;15.60;99.90
46562;DHT22;32289;42.688;23.330;2023-09-19T00:43:56;15.50;99.90
46562;DHT22;32289;42.688;23.330;2023-09-19T00:47:42;15.50;99.90
46562;DHT22;32289;42.688;23.330;2023-09-19T00:51:22;15.40;99.90
46562;DHT22;32289;42.688;23.330;2023-09-19T00:55:07;15.30;99.90
46562;DHT22;32289;42.688;23.330;2023-09-19T00:58:48;15.20;99.90
46562;DHT22;32289;42.688;23.330;2023-09-19T01:02:29;15.20;99.90
46562;DHT22;32289;42.688;23.330;2023-09-19T01:06:10;15.20;99.90
46562;DHT22;32289;42.688;23.330;2023-09-19T01:09:51;15.20;99.90
46562;DHT22;32289;42.688;23.330;2023-09-19T01:17:56;15.00;99.90
46562;DHT22;32289;42.688;23.330;2023-09-19T01:21:55;14.90;99.90
46562;DHT22;32289;42.688;23.330;2023-09-19T01:29:48;15.00;99.90
46562;DHT22;32289;42.688;23.330;2023-09-19T01:33:59;15.00;99.90
46562;DHT22;32289;42.688;23.330;2023-09-19T01:37:40;14.90;99.90
46562;DHT22;32289;42.688;23.330;2023-09-19T01:41:55;14.80;99.90
46562;DHT22;32289;42.688;23.330;2023-09-19T01:45:36;14.70;99.90
46562;DHT22;32289;42.688;23.330;2023-09-19T01:49:59;14.80;99.90
46562;DHT22;32289;42.688;23.330;2023-09-19T01:54:07;14.80;99.90
46562;DHT22;32289;42.688;23.330;2023-09-19T01:57:54;14.80;99.90
46562;DHT22;32289;42.688;23.330;2023-09-19T02:01:39;14.90;99.90
46562;DHT22;32289;42.688;23.330;2023-09-19T02:05:25;15.00;99.90
46562;DHT22;32289;42.688;23.330;2023-09-19T02:09:06;14.80;99.90
46562;DHT22;32289;42.688;23.330;2023-09-19T02:12:47;14.80;99.90
46562;DHT22;32289;42.688;23.330;2023-09-19T02:16:28;14.90;99.90
46562;DHT22;32289;42.688;23.330;2023-09-19T02:20:10;14.70;99.90
46562;DHT22;32289;42.688;23.330;2023-09-19T02:23:55;14.60;99.90
46562;DHT22;32289;42.688;23.330;2023-09-19T02:27:36;14.60;99.90
46562;DHT22;32289;42.688;23.330;2023-09-19T02:31:18;14.60;99.90
46562;DHT22;32289;42.688;23.330;2023-09-19T02:34:59;14.60;99.90
46562;DHT22;32289;42.688;23.330;2023-09-19T02:38:40;14.40;99.90
46562;DHT22;32289;42.688;23.330;2023-09-19T02:42:20;14.40;99.90
46562;DHT22;32289;42.688;23.330;2023-09-19T02:46:01;14.50;99.90
46562;DHT22;32289;42.688;23.330;2023-09-19T02:49:43;14.40;99.90
46562;DHT22;32289;42.688;23.330;2023-09-19T02:53:24;14.70;99.90
46562;DHT22;32289;42.688;23.330;2023-09-19T02:57:05;15.00;99.90
46562;DHT22;32289;42.688;23.330;2023-09-19T03:00:47;14.90;99.90
46562;DHT22;32289;42.688;23.330;2023-09-19T03:04:28;14.90;99.90
46562;DHT22;32289;42.688;23.330;2023-09-19T03:08:09;14.80;99.90
46562;DHT22;32289;42.688;23.330;2023-09-19T03:11:50;14.90;99.90
46562;DHT22;32289;42.688;23.330;2023-09-19T03:15:31;14.80;99.90
46562;DHT22;32289;42.688;23.330;2023-09-19T03:19:11;14.50;99.90
46562;DHT22;32289;42.688;23.330;2023-09-19T03:22:52;14.50;99.90
46562;DHT22;32289;42.688;23.330;2023-09-19T03:26:33;14.50;99.90
46562;DHT22;32289;42.688;23.330;2023-09-19T03:30:14;14.70;99.90
46562;DHT22;32289;42.688;23.330;2023-09-19T03:33:55;14.30;99.90
46562;DHT22;32289;42.688;23.330;2023-09-19T03:37:35;14.60;99.90
46562;DHT22;32289;42.688;23.330;2023-09-19T03:41:16;14.50;99.90
46562;DHT22;32289;42.688;23.330;2023-09-19T03:44:57;14.70;99.90
46562;DHT22;32289;42.688;23.330;2023-09-19T03:48:40;14.70;99.90
46562;DHT22;32289;42.688;23.330;2023-09-19T03:52:20;14.50;99.90
46562;DHT22;32289;42.688;23.330;2023-09-19T03:56:01;14.60;99.90
46562;DHT22;32289;42.688;23.330;2023-09-19T03:59:43;14.50;99.90
46562;DHT22;32289;42.688;23.330;2023-09-19T04:03:24;14.60;99.90
46562;DHT22;32289;42.688;23.330;2023-09-19T04:07:14;14.50;99.90
46562;DHT22;32289;42.688;23.330;2023-09-19T04:10:55;14.60;99.90
46562;DHT22;32289;42.688;23.330;2023-09-19T04:14:40;14.20;99.90
46562;DHT22;32289;42.688;23.330;2023-09-19T04:18:21;14.40;99.90
46562;DHT22;32289;42.688;23.330;2023-09-19T04:22:04;14.40;99.90
46562;DHT22;32289;42.688;23.330;2023-09-19T04:25:44;14.70;99.90
46562;DHT22;32289;42.688;23.330;2023-09-19T04:29:25;14.90;99.90
46562;DHT22;32289;42.688;23.330;2023-09-19T04:33:10;14.70;99.90
46562;DHT22;32289;42.688;23.330;2023-09-19T04:36:50;14.70;99.90
46562;DHT22;32289;42.688;23.330;2023-09-19T04:40:31;14.90;99.90
46562;DHT22;32289;42.688;23.330;2023-09-19T04:44:13;14.70;99.90
46562;DHT22;32289;42.688;23.330;2023-09-19T04:47:54;14.70;99.90
46562;DHT22;32289;42.688;23.330;2023-09-19T04:51:34;14.70;99.90
46562;DHT22;32289;42.688;23.330;2023-09-19T04:55:17;14.60;99.90
46562;DHT22;32289;42.688;23.330;2023-09-19T04:58:59;14.70;99.90
46562;DHT22;32289;42.688;23.330;2023-09-19T05:02:43;14.70;99.90
46562;DHT22;32289;42.688;23.330;2023-09-19T05:06:24;15.10;99.90
46562;DHT22;32289;42.688;23.330;2023-09-19T05:10:07;14.90;99.90
46562;DHT22;32289;42.688;23.330;2023-09-19T05:13:49;15.00;99.90
46562;DHT22;32289;42.688;23.330;2023-09-19T05:17:36;15.10;99.90
46562;DHT22;32289;42.688;23.330;2023-09-19T05:21:17;15.20;99.90
46562;DHT22;32289;42.688;23.330;2023-09-19T05:24:58;15.60;99.90
46562;DHT22;32289;42.688;23.330;2023-09-19T05:28:39;15.90;99.90
46562;DHT22;32289;42.688;23.330;2023-09-19T05:32:19;16.00;99.90
46562;DHT22;32289;42.688;23.330;2023-09-19T05:36:00;16.10;99.90
46562;DHT22;32289;42.688;23.330;2023-09-19T05:39:41;16.40;99.90
46562;DHT22;32289;42.688;23.330;2023-09-19T05:43:21;16.10;99.90
46562;DHT22;32289;42.688;23.330;2023-09-19T05:47:03;16.10;99.90
46562;DHT22;32289;42.688;23.330;2023-09-19T05:50:44;16.50;99.90
46562;DHT22;32289;42.688;23.330;2023-09-19T05:54:29;16.50;99.90
46562;DHT22;32289;42.688;23.330;2023-09-19T05:58:16;16.60;99.90
46562;DHT22;32289;42.688;23.330;2023-09-19T06:01:58;17.00;99.90
46562;DHT22;32289;42.688;23.330;2023-09-19T06:05:40;17.60;99.90
46562;DHT22;32289;42.688;23.330;2023-09-19T06:09:23;17.60;99.50
46562;DHT22;32289;42.688;23.330;2023-09-19T06:13:04;18.40;95.20
46562;DHT22;32289;42.688;23.330;2023-09-19T06:16:46;18.40;94.60
46562;DHT22;32289;42.688;23.330;2023-09-19T06:20:27;18.20;96.90
46562;DHT22;32289;42.688;23.330;2023-09-19T06:24:08;18.00;96.60
46562;DHT22;32289;42.688;23.330;2023-09-19T06:27:50;17.90;96.90
46562;DHT22;32289;42.688;23.330;2023-09-19T06:31:38;18.30;95.30
46562;DHT22;32289;42.688;23.330;2023-09-19T06:35:19;19.20;92.80
46562;DHT22;32289;42.688;23.330;2023-09-19T06:39:01;20.30;90.30
46562;DHT22;32289;42.688;23.330;2023-09-19T06:42:49;20.10;88.20
46562;DHT22;32289;42.688;23.330;2023-09-19T06:46:31;19.90;88.60
46562;DHT22;32289;42.688;23.330;2023-09-19T06:50:15;19.50;89.30
46562;DHT22;32289;42.688;23.330;2023-09-19T06:54:00;19.00;91.40
46562;DHT22;32289;42.688;23.330;2023-09-19T06:57:45;18.80;92.70
46562;DHT22;32289;42.688;23.330;2023-09-19T07:01:26;18.80;91.30
46562;DHT22;32289;42.688;23.330;2023-09-19T07:05:06;18.80;92.70
46562;DHT22;32289;42.688;23.330;2023-09-19T07:08:47;19.00;91.30
46562;DHT22;32289;42.688;23.330;2023-09-19T07:12:31;18.60;92.00
46562;DHT22;32289;42.688;23.330;2023-09-19T07:16:13;18.90;92.50
46562;DHT22;32289;42.688;23.330;2023-09-19T07:19:54;19.00;90.70
46562;DHT22;32289;42.688;23.330;2023-09-19T07:23:35;19.20;91.50
46562;DHT22;32289;42.688;23.330;2023-09-19T07:27:16;19.70;90.20
46562;DHT22;32289;42.688;23.330;2023-09-19T07:30:57;19.60;87.80
46562;DHT22;32289;42.688;23.330;2023-09-19T07:34:38;19.70;88.50
46562;DHT22;32289;42.688;23.330;2023-09-19T07:38:21;19.00;90.70
46562;DHT22;32289;42.688;23.330;2023-09-19T07:42:03;19.10;90.80
46562;DHT22;32289;42.688;23.330;2023-09-19T07:45:44;19.30;90.10
46562;DHT22;32289;42.688;23.330;2023-09-19T07:49:24;19.50;88.10
46562;DHT22;32289;42.688;23.330;2023-09-19T07:53:05;19.60;87.10
46562;DHT22;32289;42.688;23.330;2023-09-19T07:56:46;20.50;81.30
46562;DHT22;32289;42.688;23.330;2023-09-19T08:00:26;20.50;79.20
46562;DHT22;32289;42.688;23.330;2023-09-19T08:04:08;20.80;78.80
46562;DHT22;32289;42.688;23.330;2023-09-19T08:07:52;21.20;77.20
46562;DHT22;32289;42.688;23.330;2023-09-19T08:11:35;21.00;76.00
46562;DHT22;32289;42.688;23.330;2023-09-19T08:15:17;20.70;79.90
46562;DHT22;32289;42.688;23.330;2023-09-19T08:18:59;21.30;74.80
46562;DHT22;32289;42.688;23.330;2023-09-19T08:22:40;21.10;78.60
46562;DHT22;32289;42.688;23.330;2023-09-19T08:26:20;20.90;78.20
46562;DHT22;32289;42.688;23.330;2023-09-19T08:30:02;22.30;71.90
46562;DHT22;32289;42.688;23.330;2023-09-19T08:33:43;22.50;71.70
46562;DHT22;32289;42.688;23.330;2023-09-19T08:37:29;22.10;73.20
46562;DHT22;32289;42.688;23.330;2023-09-19T08:41:10;22.20;71.80
46562;DHT22;32289;42.688;23.330;2023-09-19T08:44:50;21.80;75.20
46562;DHT22;32289;42.688;23.330;2023-09-19T08:48:32;22.50;72.10
46562;DHT22;32289;42.688;23.330;2023-09-19T08:52:37;22.80;71.50
46562;DHT22;32289;42.688;23.330;2023-09-19T08:56:22;22.60;70.50
46562;DHT22;32289;42.688;23.330;2023-09-19T09:00:05;22.30;71.60
46562;DHT22;32289;42.688;23.330;2023-09-19T09:03:54;22.20;71.90
46562;DHT22;32289;42.688;23.330;2023-09-19T09:07:39;21.60;74.90
46562;DHT22;32289;42.688;23.330;2023-09-19T09:11:21;21.00;76.80
46562;DHT22;32289;42.688;23.330;2023-09-19T09:15:05;21.50;76.60
46562;DHT22;32289;42.688;23.330;2023-09-19T09:18:46;23.10;70.10
46562;DHT22;32289;42.688;23.330;2023-09-19T09:22:32;23.20;68.30
46562;DHT22;32289;42.688;23.330;2023-09-19T09:26:14;23.10;69.50
46562;DHT22;32289;42.688;23.330;2023-09-19T09:29:54;22.40;70.80
46562;DHT22;32289;42.688;23.330;2023-09-19T09:33:36;22.40;71.00
46562;DHT22;32289;42.688;23.330;2023-09-19T09:37:17;23.30;69.10
46562;DHT22;32289;42.688;23.330;2023-09-19T09:41:02;23.60;68.00
46562;DHT22;32289;42.688;23.330;2023-09-19T09:49:05;22.90;69.90
46562;DHT22;32289;42.688;23.330;2023-09-19T09:53:00;23.50;67.10
46562;DHT22;32289;42.688;23.330;2023-09-19T09:56:58;24.00;67.00
46562;DHT22;32289;42.688;23.330;2023-09-19T10:00:57;23.30;66.40
46562;DHT22;32289;42.688;23.330;2023-09-19T10:04:43;22.70;67.90
46562;DHT22;32289;42.688;23.330;2023-09-19T10:08:32;22.30;68.90
46562;DHT22;32289;42.688;23.330;2023-09-19T10:12:14;22.20;70.40
46562;DHT22;32289;42.688;23.330;2023-09-19T10:15:58;22.50;70.80
46562;DHT22;32289;42.688;23.330;2023-09-19T10:19:46;22.60;68.70
46562;DHT22;32289;42.688;23.330;2023-09-19T10:23:34;22.70;68.50
46562;DHT22;32289;42.688;23.330;2023-09-19T10:27:16;22.40;69.10
46562;DHT22;32289;42.688;23.330;2023-09-19T10:30:57;22.40;69.50
46562;DHT22;32289;42.688;23.330;2023-09-19T10:34:41;22.60;69.10
46562;DHT22;32289;42.688;23.330;2023-09-19T10:38:25;23.30;66.90
46562;DHT22;32289;42.688;23.330;2023-09-19T10:42:06;23.40;66.60
46562;DHT22;32289;42.688;23.330;2023-09-19T10:45:49;23.40;66.50
46562;DHT22;32289;42.688;23.330;2023-09-19T10:49:32;23.60;65.10
46562;DHT22;32289;42.688;23.330;2023-09-19T10:53:14;23.10;67.40
46562;DHT22;32289;42.688;23.330;2023-09-19T10:56:56;22.70;67.60
46562;DHT22;32289;42.688;23.330;2023-09-19T11:00:59;23.10;67.00
46562;DHT22;32289;42.688;23.330;2023-09-19T11:04:50;23.40;68.10
46562;DHT22;32289;42.688;23.330;2023-09-19T11:16:18;23.50;65.90
46562;DHT22;32289;42.688;23.330;2023-09-19T11:32:02;23.40;67.00
46562;DHT22;32289;42.688;23.330;2023-09-19T11:40:06;23.90;66.00
46562;DHT22;32289;42.688;23.330;2023-09-19T11:47:51;24.10;65.90
46562;DHT22;32289;42.688;23.330;2023-09-19T11:51:40;24.50;64.40
46562;DHT22;32289;42.688;23.330;2023-09-19T11:55:28;24.70;63.60
46562;DHT22;32289;42.688;23.330;2023-09-19T11:59:23;24.80;64.00
46562;DHT22;32289;42.688;23.330;2023-09-19T12:03:08;24.90;62.80
46562;DHT22;32289;42.688;23.330;2023-09-19T12:06:56;25.70;61.30
46562;DHT22;32289;42.688;23.330;2023-09-19T12:10:48;26.00;60.50
46562;DHT22;32289;42.688;23.330;2023-09-19T12:14:33;25.50;61.40
46562;DHT22;32289;42.688;23.330;2023-09-19T12:18:28;25.50;60.50
46562;DHT22;32289;42.688;23.330;2023-09-19T12:22:10;24.80;62.00
46562;DHT22;32289;42.688;23.330;2023-09-19T12:25:50;25.40;61.80
46562;DHT22;32289;42.688;23.330;2023-09-19T12:33:24;25.50;61.30
46562;DHT22;32289;42.688;23.330;2023-09-19T12:37:12;25.10;61.30
46562;DHT22;32289;42.688;23.330;2023-09-19T12:40:57;25.70;60.60
46562;DHT22;32289;42.688;23.330;2023-09-19T12:44:51;25.80;60.00
46562;DHT22;32289;42.688;23.330;2023-09-19T12:48:35;25.70;59.40
46562;DHT22;32289;42.688;23.330;2023-09-19T12:52:18;25.60;59.50
46562;DHT22;32289;42.688;23.330;2023-09-19T12:56:00;25.80;59.60
46562;DHT22;32289;42.688;23.330;2023-09-19T12:59:41;25.70;60.00
46562;DHT22;32289;42.688;23.330;2023-09-19T13:03:29;25.50;59.70
46562;DHT22;32289;42.688;23.330;2023-09-19T13:07:44;25.50;60.00
46562;DHT22;32289;42.688;23.330;2023-09-19T13:11:36;25.30;59.60
46562;DHT22;32289;42.688;23.330;2023-09-19T13:15:20;25.00;60.50
46562;DHT22;32289;42.688;23.330;2023-09-19T13:19:03;25.00;61.20
46562;DHT22;32289;42.688;23.330;2023-09-19T13:22:45;24.80;62.20
46562;DHT22;32289;42.688;23.330;2023-09-19T13:26:34;25.00;62.20
46562;DHT22;32289;42.688;23.330;2023-09-19T13:30:15;25.20;61.00
46562;DHT22;32289;42.688;23.330;2023-09-19T13:33:55;25.20;61.00
46562;DHT22;32289;42.688;23.330;2023-09-19T13:37:38;25.20;61.10
46562;DHT22;32289;42.688;23.330;2023-09-19T13:41:21;25.20;61.40
46562;DHT22;32289;42.688;23.330;2023-09-19T13:45:05;25.00;61.90
46562;DHT22;32289;42.688;23.330;2023-09-19T13:48:46;25.00;62.70
46562;DHT22;32289;42.688;23.330;2023-09-19T13:52:27;25.20;61.90
46562;DHT22;32289;42.688;23.330;2023-09-19T13:56:10;25.00;61.60
46562;DHT22;32289;42.688;23.330;2023-09-19T13:59:52;25.00;61.80
46562;DHT22;32289;42.688;23.330;2023-09-19T14:03:34;24.90;62.20
46562;DHT22;32289;42.688;23.330;2023-09-19T14:07:16;24.70;62.60
46562;DHT22;32289;42.688;23.330;2023-09-19T14:10:58;24.60;62.90
46562;DHT22;32289;42.688;23.330;2023-09-19T14:14:38;24.70;62.60
46562;DHT22;32289;42.688;23.330;2023-09-19T14:18:19;24.90;62.00
46562;DHT22;32289;42.688;23.330;2023-09-19T14:22:02;25.10;62.30
46562;DHT22;32289;42.688;23.330;2023-09-19T14:25:48;25.10;61.50
46562;DHT22;32289;42.688;23.330;2023-09-19T14:29:30;25.00;61.80
46562;DHT22;32289;42.688;23.330;2023-09-19T14:33:11;24.80;62.40
46562;DHT22;32289;42.688;23.330;2023-09-19T14:36:53;24.90;61.80
46562;DHT22;32289;42.688;23.330;2023-09-19T14:40:34;24.80;62.30
46562;DHT22;32289;42.688;23.330;2023-09-19T14:44:16;24.80;61.90
46562;DHT22;32289;42.688;23.330;2023-09-19T14:47:57;24.80;61.90
46562;DHT22;32289;42.688;23.330;2023-09-19T14:51:38;24.80;62.30
46562;DHT22;32289;42.688;23.330;2023-09-19T14:55:22;24.70;62.30
46562;DHT22;32289;42.688;23.330;2023-09-19T14:59:03;24.70;62.70
46562;DHT22;32289;42.688;23.330;2023-09-19T15:02:47;24.60;62.90
46562;DHT22;32289;42.688;23.330;2023-09-19T15:06:30;24.50;62.60
46562;DHT22;32289;42.688;23.330;2023-09-19T15:10:11;24.40;63.40
46562;DHT22;32289;42.688;23.330;2023-09-19T15:13:53;24.50;63.50
46562;DHT22;32289;42.688;23.330;2023-09-19T15:17:35;24.50;63.60
46562;DHT22;32289;42.688;23.330;2023-09-19T15:21:17;24.50;63.50
46562;DHT22;32289;42.688;23.330;2023-09-19T15:24:58;24.40;63.60
46562;DHT22;32289;42.688;23.330;2023-09-19T15:28:40;24.50;64.10
46562;DHT22;32289;42.688;23.330;2023-09-19T15:32:20;24.40;64.10
46562;DHT22;32289;42.688;23.330;2023-09-19T15:39:43;24.40;63.80
46562;DHT22;32289;42.688;23.330;2023-09-19T15:43:25;24.30;64.40
46562;DHT22;32289;42.688;23.330;2023-09-19T15:47:06;24.30;64.40
46562;DHT22;32289;42.688;23.330;2023-09-19T15:50:46;24.20;64.70
46562;DHT22;32289;42.688;23.330;2023-09-19T15:54:27;24.10;64.90
46562;DHT22;32289;42.688;23.330;2023-09-19T15:58:08;24.10;65.00
46562;DHT22;32289;42.688;23.330;2023-09-19T16:01:49;24.10;65.20
46562;DHT22;32289;42.688;23.330;2023-09-19T16:05:37;24.00;64.70
46562;DHT22;32289;42.688;23.330;2023-09-19T16:09:19;24.00;65.40
46562;DHT22;32289;42.688;23.330;2023-09-19T16:13:00;23.90;65.40
46562;DHT22;32289;42.688;23.330;2023-09-19T16:16:41;23.70;66.00
46562;DHT22;32289;42.688;23.330;2023-09-19T16:20:21;23.50;66.80
46562;DHT22;32289;42.688;23.330;2023-09-19T16:24:04;23.40;67.50
46562;DHT22;32289;42.688;23.330;2023-09-19T16:27:44;23.30;67.90
46562;DHT22;32289;42.688;23.330;2023-09-19T16:31:25;23.20;68.30
46562;DHT22;32289;42.688;23.330;2023-09-19T16:35:07;23.00;70.80
46562;DHT22;32289;42.688;23.330;2023-09-19T16:38:49;22.70;70.60
46562;DHT22;32289;42.688;23.330;2023-09-19T16:42:30;22.70;71.60
46562;DHT22;32289;42.688;23.330;2023-09-19T16:46:12;22.70;71.30
46562;DHT22;32289;42.688;23.330;2023-09-19T16:49:53;22.70;71.70
46562;DHT22;32289;42.688;23.330;2023-09-19T16:53:35;22.40;75.00
46562;DHT22;32289;42.688;23.330;2023-09-19T16:57:16;22.10;77.40
46562;DHT22;32289;42.688;23.330;2023-09-19T17:00:57;21.90;78.30
46562;DHT22;32289;42.688;23.330;2023-09-19T17:04:37;21.80;78.90
46562;DHT22;32289;42.688;23.330;2023-09-19T17:08:18;22.00;76.80
46562;DHT22;32289;42.688;23.330;2023-09-19T17:11:59;22.10;76.90
46562;DHT22;32289;42.688;23.330;2023-09-19T17:15:40;22.00;77.50
46562;DHT22;32289;42.688;23.330;2023-09-19T17:19:21;21.90;78.40
46562;DHT22;32289;42.688;23.330;2023-09-19T17:23:03;21.70;80.30
46562;DHT22;32289;42.688;23.330;2023-09-19T17:26:44;21.70;80.80
46562;DHT22;32289;42.688;23.330;2023-09-19T17:30:24;21.60;82.20
46562;DHT22;32289;42.688;23.330;2023-09-19T17:34:07;21.50;82.00
46562;DHT22;32289;42.688;23.330;2023-09-19T17:37:48;21.50;81.50
46562;DHT22;32289;42.688;23.330;2023-09-19T17:41:29;21.50;83.00
46562;DHT22;32289;42.688;23.330;2023-09-19T17:45:10;21.50;82.20
46562;DHT22;32289;42.688;23.330;2023-09-19T17:49:00;21.50;82.40
46562;DHT22;32289;42.688;23.330;2023-09-19T17:52:41;21.40;82.90
46562;DHT22;32289;42.688;23.330;2023-09-19T17:56:23;21.40;83.70
46562;DHT22;32289;42.688;23.330;2023-09-19T18:00:05;21.40;84.20
46562;DHT22;32289;42.688;23.330;2023-09-19T18:03:49;21.30;84.80
46562;DHT22;32289;42.688;23.330;2023-09-19T18:07:37;21.30;84.70
46562;DHT22;32289;42.688;23.330;2023-09-19T18:11:18;21.20;85.50
46562;DHT22;32289;42.688;23.330;2023-09-19T18:15:00;21.10;86.50
46562;DHT22;32289;42.688;23.330;2023-09-19T18:18:40;21.10;87.20
46562;DHT22;32289;42.688;23.330;2023-09-19T18:22:21;21.00;88.00
46562;DHT22;32289;42.688;23.330;2023-09-19T18:26:02;21.00;88.70
46562;DHT22;32289;42.688;23.330;2023-09-19T18:29:45;20.90;88.70
46562;DHT22;32289;42.688;23.330;2023-09-19T18:33:27;20.80;88.30
46562;DHT22;32289;42.688;23.330;2023-09-19T18:37:10;20.80;87.90
46562;DHT22;32289;42.688;23.330;2023-09-19T18:40:51;20.70;86.90
46562;DHT22;32289;42.688;23.330;2023-09-19T18:44:32;20.70;86.50
46562;DHT22;32289;42.688;23.330;2023-09-19T18:48:12;20.70;86.10
46562;DHT22;32289;42.688;23.330;2023-09-19T18:51:56;20.70;86.50
46562;DHT22;32289;42.688;23.330;2023-09-19T18:55:37;20.70;86.00
46562;DHT22;32289;42.688;23.330;2023-09-19T18:59:17;20.70;85.90
46562;DHT22;32289;42.688;23.330;2023-09-19T19:03:03;20.70;86.10
46562;DHT22;32289;42.688;23.330;2023-09-19T19:06:45;20.70;87.00
46562;DHT22;32289;42.688;23.330;2023-09-19T19:10:26;20.70;87.00
46562;DHT22;32289;42.688;23.330;2023-09-19T19:14:06;20.70;85.30
46562;DHT22;32289;42.688;23.330;2023-09-19T19:17:49;20.60;84.30
46562;DHT22;32289;42.688;23.330;2023-09-19T19:21:30;20.50;84.70
46562;DHT22;32289;42.688;23.330;2023-09-19T19:25:11;20.40;84.50
46562;DHT22;32289;42.688;23.330;2023-09-19T19:28:52;20.40;84.90
46562;DHT22;32289;42.688;23.330;2023-09-19T19:32:33;20.30;84.90
46562;DHT22;32289;42.688;23.330;2023-09-19T19:36:14;20.30;84.90
46562;DHT22;32289;42.688;23.330;2023-09-19T19:39:55;20.30;84.50
46562;DHT22;32289;42.688;23.330;2023-09-19T19:43:36;20.20;84.70
46562;DHT22;32289;42.688;23.330;2023-09-19T19:47:16;20.20;84.80
46562;DHT22;32289;42.688;23.330;2023-09-19T19:50:58;20.10;85.30
46562;DHT22;32289;42.688;23.330;2023-09-19T19:54:39;20.10;85.50
46562;DHT22;32289;42.688;23.330;2023-09-19T19:58:20;20.10;84.80
46562;DHT22;32289;42.688;23.330;2023-09-19T20:02:07;20.20;84.70
46562;DHT22;32289;42.688;23.330;2023-09-19T20:05:48;20.10;85.00
46562;DHT22;32289;42.688;23.330;2023-09-19T20:09:28;20.10;84.80
46562;DHT22;32289;42.688;23.330;2023-09-19T20:13:10;20.20;85.20
46562;DHT22;32289;42.688;23.330;2023-09-19T20:16:51;20.30;84.90
46562;DHT22;32289;42.688;23.330;2023-09-19T20:20:34;20.20;88.00
46562;DHT22;32289;42.688;23.330;2023-09-19T20:24:15;20.20;90.60
46562;DHT22;32289;42.688;23.330;2023-09-19T20:28:03;19.80;97.80
46562;DHT22;32289;42.688;23.330;2023-09-19T20:31:45;19.10;99.90
46562;DHT22;32289;42.688;23.330;2023-09-19T20:35:25;18.70;99.90
46562;DHT22;32289;42.688;23.330;2023-09-19T20:39:07;18.40;99.90
46562;DHT22;32289;42.688;23.330;2023-09-19T20:42:50;18.10;99.90
46562;DHT22;32289;42.688;23.330;2023-09-19T20:46:31;18.20;99.90
46562;DHT22;32289;42.688;23.330;2023-09-19T20:50:12;18.20;99.90
46562;DHT22;32289;42.688;23.330;2023-09-19T20:53:53;18.10;99.90
46562;DHT22;32289;42.688;23.330;2023-09-19T20:57:34;18.20;99.90
46562;DHT22;32289;42.688;23.330;2023-09-19T21:01:15;18.20;99.90
46562;DHT22;32289;42.688;23.330;2023-09-19T21:04:56;18.00;99.90
46562;DHT22;32289;42.688;23.330;2023-09-19T21:08:37;17.80;99.90
46562;DHT22;32289;42.688;23.330;2023-09-19T21:12:18;17.60;99.90
46562;DHT22;32289;42.688;23.330;2023-09-19T21:16:01;17.50;99.90
46562;DHT22;32289;42.688;23.330;2023-09-19T21:19:41;17.50;99.90
46562;DHT22;32289;42.688;23.330;2023-09-19T21:23:22;17.60;99.90
46562;DHT22;32289;42.688;23.330;2023-09-19T21:27:03;17.40;99.90
46562;DHT22;32289;42.688;23.330;2023-09-19T21:30:45;17.40;99.90
46562;DHT22;32289;42.688;23.330;2023-09-19T21:34:25;17.30;99.90
46562;DHT22;32289;42.688;23.330;2023-09-19T21:38:06;17.10;99.90
46562;DHT22;32289;42.688;23.330;2023-09-19T21:41:48;17.10;99.90
46562;DHT22;32289;42.688;23.330;2023-09-19T21:45:33;17.00;99.90
46562;DHT22;32289;42.688;23.330;2023-09-19T21:49:14;17.00;99.90
46562;DHT22;32289;42.688;23.330;2023-09-19T21:52:54;17.10;99.90
46562;DHT22;32289;42.688;23.330;2023-09-19T21:56:35;17.00;99.90
46562;DHT22;32289;42.688;23.330;2023-09-19T22:00:17;17.00;99.90
46562;DHT22;32289;42.688;23.330;2023-09-19T22:04:14;17.00;99.90
46562;DHT22;32289;42.688;23.330;2023-09-19T22:07:56;16.90;99.90
46562;DHT22;32289;42.688;23.330;2023-09-19T22:11:37;16.90;99.90
46562;DHT22;32289;42.688;23.330;2023-09-19T22:15:18;17.00;99.90
46562;DHT22;32289;42.688;23.330;2023-09-19T22:18:58;17.10;99.90
46562;DHT22;32289;42.688;23.330;2023-09-19T22:22:40;17.00;99.90
46562;DHT22;32289;42.688;23.330;2023-09-19T22:26:21;17.00;99.90
46562;DHT22;32289;42.688;23.330;2023-09-19T22:30:05;16.90;99.90
46562;DHT22;32289;42.688;23.330;2023-09-19T22:33:46;16.90;99.90
46562;DHT22;32289;42.688;23.330;2023-09-19T22:37:30;16.90;99.90
46562;DHT22;32289;42.688;23.330;2023-09-19T22:41:13;17.00;99.90
46562;DHT22;32289;42.688;23.330;2023-09-19T22:44:56;17.00;99.90
46562;DHT22;32289;42.688;23.330;2023-09-19T22:48:38;17.00;99.90
46562;DHT22;32289;42.688;23.330;2023-09-19T22:52:19;16.80;99.90
46562;DHT22;32289;42.688;23.330;2023-09-19T22:56:02;17.00;99.90
46562;DHT22;32289;42.688;23.330;2023-09-19T22:59:50;17.00;99.90
46562;DHT22;32289;42.688;23.330;2023-09-19T23:03:32;16.90;99.90
46562;DHT22;32289;42.688;23.330;2023-09-19T23:07:13;17.00;99.90
46562;DHT22;32289;42.688;23.330;2023-09-19T23:10:53;16.90;99.90
46562;DHT22;32289;42.688;23.330;2023-09-19T23:14:35;16.80;99.90
46562;DHT22;32289;42.688;23.330;2023-09-19T23:18:18;16.80;99.90
46562;DHT22;32289;42.688;23.330;2023-09-19T23:21:59;16.90;99.90
46562;DHT22;32289;42.688;23.330;2023-09-19T23:25:50;16.90;99.90
46562;DHT22;32289;42.688;23.330;2023-09-19T23:29:33;16.70;99.90
46562;DHT22;32289;42.688;23.330;2023-09-19T23:33:15;16.60;99.90
46562;DHT22;32289;42.688;23.330;2023-09-19T23:36:58;16.70;99.90
46562;DHT22;32289;42.688;23.330;2023-09-19T23:40:39;16.90;99.90
46562;DHT22;32289;42.688;23.330;2023-09-19T23:44:20;16.90;99.90
46562;DHT22;32289;42.688;23.330;2023-09-19T23:48:01;16.70;99.90
46562;DHT22;32289;42.688;23.330;2023-09-19T23:51:42;16.80;99.90
46562;DHT22;32289;42.688;23.330;2023-09-19T23:55:24;16.60;99.90